Time,TemperatureF,DewpointF,PressureIn,WindDirection,WindDirectionDegrees,WindSpeedMPH,WindSpeedGustMPH,Humidity,HourlyPrecipIn,Conditions,Clouds,dailyrainin,SoftwareType,DateUTC
2013-12-23 00:03:00,33.4,30.0,30.31,NNE,22,3.8,3.8,87,0.00,OVC,BKN,0.00,WeatherDisplay:10.37,2013-12-22 23:03:00,
2013-12-23 00:08:00,33.4,30.0,30.30,North,0,3.5,3.5,87,0.00,OVC,BKN,0.00,WeatherDisplay:10.37,2013-12-22 23:08:00,
2013-12-23 00:13:00,33.4,30.0,30.30,North,0,4.6,4.6,87,0.00,OVC,BKN,0.00,WeatherDisplay:10.37,2013-12-22 23:13:00,
2013-12-23 00:18:00,33.4,30.0,30.30,North,0,4.6,4.6,87,0.00,BKN,,0.00,WeatherDisplay:10.37,2013-12-22 23:18:00,
2013-12-23 00:23:00,33.4,30.0,30.30,North,0,5.8,5.8,87,0.00,BKN,,0.00,WeatherDisplay:10.37,2013-12-22 23:23:00,
2013-12-23 00:28:00,33.4,30.0,30.30,North,0,5.8,5.8,87,0.00,BKN,,0.00,WeatherDisplay:10.37,2013-12-22 23:28:00,
2013-12-23 00:33:00,33.4,30.0,30.30,North,0,5.8,5.8,87,0.00,BKN,,0.00,WeatherDisplay:10.37,2013-12-22 23:33:00,
2013-12-23 00:38:00,33.4,30.0,30.30,NW,315,5.8,5.8,87,0.00,BKN,,0.00,WeatherDisplay:10.37,2013-12-22 23:38:00,
2013-12-23 00:43:00,33.4,30.0,30.30,WNW,292,5.8,5.8,87,0.00,BKN,,0.00,WeatherDisplay:10.37,2013-12-22 23:43:00,
2013-12-23 00:48:00,33.4,30.0,30.30,North,0,5.8,5.8,87,0.00,BKN,,0.00,WeatherDisplay:10.37,2013-12-22 23:48:00,
2013-12-23 00:53:00,33.6,30.2,30.30,North,0,4.6,4.6,87,0.00,BKN,,0.00,WeatherDisplay:10.37,2013-12-22 23:53:00,
2013-12-23 00:58:00,33.6,30.2,30.29,NNW,338,5.8,5.8,87,0.00,BKN,,0.00,WeatherDisplay:10.37,2013-12-22 23:58:00,
2013-12-23 01:03:00,33.6,30.2,30.30,North,0,4.6,4.6,87,0.00,BKN,,0.00,WeatherDisplay:10.37,2013-12-23 00:03:00,
2013-12-23 01:08:00,33.6,30.2,30.30,NW,315,4.6,4.6,87,0.00,BKN,,0.00,WeatherDisplay:10.37,2013-12-23 00:08:00,
2013-12-23 01:13:00,33.6,30.2,30.29,North,0,5.8,5.8,87,0.00,BKN,,0.00,WeatherDisplay:10.37,2013-12-23 00:13:00,
2013-12-23 01:18:00,33.6,30.2,30.29,North,0,5.8,5.8,87,0.00,BKN,,0.00,WeatherDisplay:10.37,2013-12-23 00:18:00,
2013-12-23 01:23:00,33.6,30.2,30.29,North,0,4.6,4.6,87,0.00,BKN,,0.00,WeatherDisplay:10.37,2013-12-23 00:23:00,
2013-12-23 01:28:00,33.6,30.2,30.29,NNW,338,3.5,3.5,87,0.00,BKN,,0.00,WeatherDisplay:10.37,2013-12-23 00:28:00,
2013-12-23 01:33:00,33.6,30.2,30.29,North,0,3.8,3.8,87,0.00,BKN,,0.00,WeatherDisplay:10.37,2013-12-23 00:33:00,
2013-12-23 01:38:00,33.8,30.1,30.29,North,0,4.6,4.6,86,0.00,BKN,,0.00,WeatherDisplay:10.37,2013-12-23 00:38:00,
2013-12-23 01:43:00,33.8,30.1,30.28,NNE,22,5.4,5.4,86,0.00,BKN,,0.00,WeatherDisplay:10.37,2013-12-23 00:43:00,
2013-12-23 01:48:00,33.8,30.1,30.29,North,0,5.8,5.8,86,0.00,BKN,,0.00,WeatherDisplay:10.37,2013-12-23 00:48:00,
2013-12-23 01:53:00,33.8,30.1,30.29,North,0,4.6,4.6,86,0.00,BKN,,0.00,WeatherDisplay:10.37,2013-12-23 00:53:00,
2013-12-23 01:58:00,33.8,30.1,30.29,North,0,5.8,5.8,86,0.00,BKN,,0.00,WeatherDisplay:10.37,2013-12-23 00:58:00,
2013-12-23 02:03:00,33.8,30.1,30.30,North,0,4.6,4.6,86,0.00,BKN,,0.00,WeatherDisplay:10.37,2013-12-23 01:03:00,
2013-12-23 02:08:00,34.0,30.2,30.30,NNE,22,4.6,4.6,86,0.00,BKN,,0.00,WeatherDisplay:10.37,2013-12-23 01:08:00,
2013-12-23 02:13:00,34.0,30.2,30.30,North,0,3.5,3.5,86,0.00,BKN,,0.00,WeatherDisplay:10.37,2013-12-23 01:13:00,
2013-12-23 02:18:00,34.0,30.2,30.29,NE,45,3.8,3.8,86,0.00,BKN,,0.00,WeatherDisplay:10.37,2013-12-23 01:18:00,
2013-12-23 02:23:00,34.0,30.2,30.29,North,0,3.8,3.8,86,0.00,BKN,,0.00,WeatherDisplay:10.37,2013-12-23 01:23:00,
2013-12-23 02:28:00,34.0,30.2,30.29,NE,45,5.8,5.8,86,0.00,BKN,,0.00,WeatherDisplay:10.37,2013-12-23 01:28:00,
2013-12-23 02:33:00,34.0,30.2,30.30,North,0,4.6,4.6,86,0.00,BKN,,0.00,WeatherDisplay:10.37,2013-12-23 01:33:00,
2013-12-23 02:38:00,34.0,30.2,30.30,North,0,3.5,3.5,86,0.00,BKN,,0.00,WeatherDisplay:10.37,2013-12-23 01:38:00,
2013-12-23 02:43:00,34.2,30.4,30.29,North,0,3.8,3.8,86,0.00,BKN,,0.00,WeatherDisplay:10.37,2013-12-23 01:43:00,
2013-12-23 02:48:00,34.2,30.4,30.29,NE,45,4.6,4.6,86,0.00,BKN,,0.00,WeatherDisplay:10.37,2013-12-23 01:48:00,
2013-12-23 02:53:00,34.2,30.4,30.28,North,0,4.5,4.5,86,0.00,BKN,,0.00,WeatherDisplay:10.37,2013-12-23 01:53:00,
2013-12-23 02:58:00,34.2,30.4,30.28,NE,45,3.5,3.5,86,0.00,BKN,,0.00,WeatherDisplay:10.37,2013-12-23 01:58:00,
2013-12-23 03:03:00,34.2,30.4,30.28,NE,45,2.3,2.3,86,0.00,BKN,,0.00,WeatherDisplay:10.37,2013-12-23 02:03:00,
2013-12-23 03:08:00,34.2,30.4,30.29,North,0,3.5,3.5,86,0.00,BKN,,0.00,WeatherDisplay:10.37,2013-12-23 02:08:00,
2013-12-23 03:13:00,34.2,30.4,30.28,North,0,3.8,3.8,86,0.00,BKN,,0.00,WeatherDisplay:10.37,2013-12-23 02:13:00,
2013-12-23 03:18:00,34.2,30.4,30.28,NW,315,3.5,3.5,86,0.00,OVC,BKN,0.00,WeatherDisplay:10.37,2013-12-23 02:18:00,
2013-12-23 03:23:00,34.2,30.4,30.28,North,0,3.8,3.8,86,0.00,OVC,BKN,0.00,WeatherDisplay:10.37,2013-12-23 02:23:00,
2013-12-23 03:28:00,34.2,30.4,30.28,NW,315,3.5,3.5,86,0.00,OVC,BKN,0.00,WeatherDisplay:10.37,2013-12-23 02:28:00,
2013-12-23 03:33:00,34.2,30.4,30.27,North,0,2.3,2.3,86,0.00,OVC,BKN,0.00,WeatherDisplay:10.37,2013-12-23 02:33:00,
2013-12-23 03:38:00,34.0,30.2,30.27,East,90,2.3,2.3,86,0.00,OVC,BKN,0.00,WeatherDisplay:10.37,2013-12-23 02:38:00,
2013-12-23 03:43:00,34.2,30.4,30.27,NE,45,2.3,2.3,86,0.00,OVC,BKN,0.00,WeatherDisplay:10.37,2013-12-23 02:43:00,
2013-12-23 03:48:00,34.2,30.4,30.27,North,0,1.6,1.6,86,0.00,OVC,BKN,0.00,WeatherDisplay:10.37,2013-12-23 02:48:00,
2013-12-23 03:53:00,34.2,30.4,30.26,North,0,3.1,3.1,86,0.00,OVC,BKN,0.00,WeatherDisplay:10.37,2013-12-23 02:53:00,
2013-12-23 03:58:00,34.2,30.4,30.27,North,0,3.5,3.5,86,0.00,OVC,BKN,0.00,WeatherDisplay:10.37,2013-12-23 02:58:00,
2013-12-23 04:03:00,34.2,30.4,30.27,North,0,2.3,2.3,86,0.00,OVC,BKN,0.00,WeatherDisplay:10.37,2013-12-23 03:03:00,
2013-12-23 04:08:00,34.2,30.4,30.27,NE,45,2.3,2.3,86,0.00,OVC,BKN,0.00,WeatherDisplay:10.37,2013-12-23 03:08:00,
2013-12-23 04:13:00,34.2,30.4,30.26,North,0,1.6,1.6,86,0.00,OVC,BKN,0.00,WeatherDisplay:10.37,2013-12-23 03:13:00,
2013-12-23 04:18:00,34.2,30.4,30.26,NNW,338,3.5,3.5,86,0.00,OVC,BKN,0.00,WeatherDisplay:10.37,2013-12-23 03:18:00,
2013-12-23 04:23:00,34.3,30.6,30.26,North,0,3.5,0.0,86,0.00,OVC,BKN,0.00,WeatherDisplay:10.37,2013-12-23 03:23:00,
2013-12-23 04:28:00,34.3,30.6,30.26,NW,315,1.2,0.0,86,0.00,OVC,BKN,0.00,WeatherDisplay:10.37,2013-12-23 03:28:00,
2013-12-23 04:33:00,34.3,30.6,30.26,NE,45,1.2,0.0,86,0.00,OVC,BKN,0.00,WeatherDisplay:10.37,2013-12-23 03:33:00,
2013-12-23 04:38:00,34.3,30.6,30.26,NE,45,0.0,0.0,86,0.00,OVC,BKN,0.00,WeatherDisplay:10.37,2013-12-23 03:38:00,
2013-12-23 04:43:00,34.3,30.6,30.26,NE,45,0.0,0.0,86,0.00,OVC,BKN,0.00,WeatherDisplay:10.37,2013-12-23 03:43:00,
2013-12-23 04:48:00,34.3,30.6,30.26,NE,45,1.2,0.0,86,0.00,OVC,BKN,0.00,WeatherDisplay:10.37,2013-12-23 03:48:00,
2013-12-23 04:53:00,34.3,30.6,30.26,NW,315,2.2,2.2,86,0.00,OVC,BKN,0.00,WeatherDisplay:10.37,2013-12-23 03:53:00,
2013-12-23 04:58:00,34.3,30.6,30.25,East,90,3.5,3.5,86,0.00,OVC,BKN,0.00,WeatherDisplay:10.37,2013-12-23 03:58:00,
2013-12-23 05:03:00,34.3,30.6,30.26,NW,315,1.6,1.6,86,0.00,OVC,BKN,0.00,WeatherDisplay:10.37,2013-12-23 04:03:00,
2013-12-23 05:08:00,34.3,30.6,30.26,North,0,2.3,2.3,86,0.00,OVC,BKN,0.00,WeatherDisplay:10.37,2013-12-23 04:08:00,
2013-12-23 05:13:00,34.3,30.6,30.26,NNW,338,3.5,3.5,86,0.00,OVC,BKN,0.00,WeatherDisplay:10.37,2013-12-23 04:13:00,
2013-12-23 05:18:00,34.3,30.6,30.26,North,0,3.5,3.5,86,0.00,OVC,BKN,0.00,WeatherDisplay:10.37,2013-12-23 04:18:00,
2013-12-23 05:23:00,34.3,30.6,30.26,NE,45,2.3,2.3,86,0.00,OVC,BKN,0.00,WeatherDisplay:10.37,2013-12-23 04:23:00,
2013-12-23 05:28:00,34.5,30.8,30.26,North,0,3.5,3.5,86,0.00,OVC,BKN,0.00,WeatherDisplay:10.37,2013-12-23 04:28:00,
2013-12-23 05:33:00,34.5,30.8,30.26,North,0,4.6,4.6,86,0.00,OVC,BKN,0.00,WeatherDisplay:10.37,2013-12-23 04:33:00,
2013-12-23 05:38:00,34.5,30.8,30.26,NNW,338,3.5,3.5,86,0.00,OVC,BKN,0.00,WeatherDisplay:10.37,2013-12-23 04:38:00,
2013-12-23 05:43:00,34.5,30.8,30.26,North,0,6.0,6.0,86,0.00,OVC,BKN,0.00,WeatherDisplay:10.37,2013-12-23 04:43:00,
2013-12-23 05:48:00,34.5,30.8,30.26,NW,315,4.6,4.6,86,0.00,OVC,BKN,0.00,WeatherDisplay:10.37,2013-12-23 04:48:00,
2013-12-23 05:53:00,34.5,30.8,30.27,North,0,4.6,4.6,86,0.00,OVC,BKN,0.00,WeatherDisplay:10.37,2013-12-23 04:53:00,
2013-12-23 05:58:00,34.7,30.9,30.27,North,0,5.8,5.8,86,0.00,OVC,BKN,0.00,WeatherDisplay:10.37,2013-12-23 04:58:00,
2013-12-23 06:01:00,34.7,30.9,30.27,North,0,4.6,4.6,86,0.00,OVC,BKN,0.00,WeatherDisplay:10.37,2013-12-23 05:01:00,
2013-12-23 06:02:00,34.7,30.9,30.27,North,0,3.8,3.8,86,0.00,OVC,BKN,0.00,WeatherDisplay:10.37,2013-12-23 05:02:00,
2013-12-23 06:05:00,34.7,30.9,30.27,North,3,3.0,4.0,86,0.00,OVC,BKN,0.00,WeatherDisplay:10.37,2013-12-23 05:05:00,
2013-12-23 06:07:00,34.7,30.9,30.26,North,0,3.8,3.8,86,0.00,OVC,BKN,0.00,WeatherDisplay:10.37,2013-12-23 05:07:00,
2013-12-23 06:10:00,34.6,30.8,30.27,North,0,0.0,4.0,86,0.00,OVC,BKN,0.00,WeatherDisplay:10.37,2013-12-23 05:10:00,
2013-12-23 06:14:00,34.7,30.9,30.27,NE,45,2.3,2.3,86,0.00,OVC,BKN,0.00,WeatherDisplay:10.37,2013-12-23 05:14:00,
2013-12-23 06:19:00,34.7,30.9,30.27,NW,315,2.3,2.3,86,0.00,OVC,BKN,0.00,WeatherDisplay:10.37,2013-12-23 05:19:00,
2013-12-23 06:24:00,34.7,30.9,30.26,North,0,2.3,2.3,86,0.00,OVC,BKN,0.00,WeatherDisplay:10.37,2013-12-23 05:24:00,
2013-12-23 06:29:00,34.7,30.9,30.27,NW,315,3.5,3.5,86,0.00,OVC,BKN,0.00,WeatherDisplay:10.37,2013-12-23 05:29:00,
2013-12-23 06:34:00,34.7,30.9,30.27,North,0,3.5,3.5,86,0.00,OVC,BKN,0.00,WeatherDisplay:10.37,2013-12-23 05:34:00,
2013-12-23 06:39:00,34.7,30.9,30.27,North,0,2.3,2.3,86,0.00,OVC,BKN,0.00,WeatherDisplay:10.37,2013-12-23 05:39:00,
2013-12-23 06:44:00,34.7,30.9,30.26,NW,315,3.5,3.5,86,0.00,OVC,BKN,0.00,WeatherDisplay:10.37,2013-12-23 05:44:00,
2013-12-23 06:49:00,34.7,30.9,30.26,North,0,2.3,2.3,86,0.00,OVC,BKN,0.00,WeatherDisplay:10.37,2013-12-23 05:49:00,
2013-12-23 06:54:00,34.7,30.9,30.26,NNE,22,1.2,0.0,86,0.00,OVC,BKN,0.00,WeatherDisplay:10.37,2013-12-23 05:54:00,
2013-12-23 06:59:00,34.9,31.1,30.26,SE,135,2.3,0.0,86,0.00,OVC,BKN,0.00,WeatherDisplay:10.37,2013-12-23 05:59:00,
2013-12-23 07:04:00,34.9,31.1,30.25,SE,135,4.6,4.6,86,0.00,OVC,BKN,0.00,WeatherDisplay:10.37,2013-12-23 06:04:00,
2013-12-23 07:09:00,34.9,31.1,30.26,NW,315,3.5,3.5,86,0.00,OVC,BKN,0.00,WeatherDisplay:10.37,2013-12-23 06:09:00,
2013-12-23 07:14:00,34.9,31.1,30.27,North,0,4.6,4.6,86,0.00,OVC,BKN,0.00,WeatherDisplay:10.37,2013-12-23 06:14:00,
2013-12-23 07:19:00,34.9,31.1,30.26,North,0,2.3,0.0,86,0.00,OVC,BKN,0.00,WeatherDisplay:10.37,2013-12-23 06:19:00,
2013-12-23 07:24:00,34.9,31.1,30.27,North,0,3.5,3.5,86,0.00,OVC,BKN,0.00,WeatherDisplay:10.37,2013-12-23 06:24:00,
2013-12-23 07:29:00,34.9,31.1,30.27,NW,315,3.8,3.8,86,0.00,OVC,BKN,0.00,WeatherDisplay:10.37,2013-12-23 06:29:00,
2013-12-23 07:34:00,34.9,31.1,30.28,NNW,338,4.6,4.6,86,0.00,OVC,BKN,0.00,WeatherDisplay:10.37,2013-12-23 06:34:00,
2013-12-23 07:39:00,34.9,31.1,30.28,North,0,5.8,5.8,86,0.00,OVC,BKN,0.00,WeatherDisplay:10.37,2013-12-23 06:39:00,
2013-12-23 07:44:00,34.9,31.1,30.28,North,0,6.0,6.0,86,0.00,OVC,BKN,0.00,WeatherDisplay:10.37,2013-12-23 06:44:00,
2013-12-23 07:49:00,34.9,31.1,30.28,North,0,5.8,5.8,86,0.00,OVC,BKN,0.00,WeatherDisplay:10.37,2013-12-23 06:49:00,
2013-12-23 07:54:00,35.1,31.3,30.28,North,0,4.6,4.6,86,0.00,OVC,BKN,0.00,WeatherDisplay:10.37,2013-12-23 06:54:00,
2013-12-23 07:59:00,35.1,31.3,30.28,NNE,22,5.8,5.8,86,0.00,OVC,BKN,0.00,WeatherDisplay:10.37,2013-12-23 06:59:00,
2013-12-23 08:04:00,35.1,31.3,30.28,North,0,3.8,3.8,86,0.00,OVC,BKN,0.00,WeatherDisplay:10.37,2013-12-23 07:04:00,
2013-12-23 08:09:00,35.1,31.3,30.28,NE,45,3.5,3.5,86,0.00,OVC,BKN,0.00,WeatherDisplay:10.37,2013-12-23 07:09:00,
2013-12-23 08:14:00,35.2,31.5,30.28,NE,45,3.5,3.5,86,0.00,OVC,BKN,0.00,WeatherDisplay:10.37,2013-12-23 07:14:00,
2013-12-23 08:19:00,35.2,31.5,30.28,North,0,2.3,2.3,86,0.00,OVC,BKN,0.00,WeatherDisplay:10.37,2013-12-23 07:19:00,
2013-12-23 08:24:00,35.2,31.5,30.28,NW,315,1.2,0.0,86,0.00,OVC,BKN,0.00,WeatherDisplay:10.37,2013-12-23 07:24:00,
2013-12-23 08:29:00,35.2,31.5,30.28,North,0,2.2,2.2,86,0.00,OVC,BKN,0.00,WeatherDisplay:10.37,2013-12-23 07:29:00,
2013-12-23 08:34:00,35.4,31.6,30.28,NW,315,3.5,3.5,86,0.00,OVC,BKN,0.00,WeatherDisplay:10.37,2013-12-23 07:34:00,
2013-12-23 08:39:00,35.4,31.6,30.29,NW,315,3.5,3.5,86,0.00,OVC,BKN,0.00,WeatherDisplay:10.37,2013-12-23 07:39:00,
2013-12-23 08:44:00,35.4,31.6,30.29,NW,315,3.1,3.1,86,0.00,OVC,BKN,0.00,WeatherDisplay:10.37,2013-12-23 07:44:00,
2013-12-23 08:49:00,35.4,31.6,30.29,NNW,338,2.3,2.3,86,0.00,OVC,BKN,0.00,WeatherDisplay:10.37,2013-12-23 07:49:00,
2013-12-23 08:54:00,35.6,31.5,30.29,North,0,3.5,3.5,85,0.00,OVC,BKN,0.00,WeatherDisplay:10.37,2013-12-23 07:54:00,
2013-12-23 08:59:00,35.6,31.5,30.29,NW,315,1.2,0.0,85,0.00,OVC,BKN,0.00,WeatherDisplay:10.37,2013-12-23 07:59:00,
2013-12-23 09:04:00,35.6,31.5,30.29,NW,315,1.6,1.6,85,0.00,OVC,BKN,0.00,WeatherDisplay:10.37,2013-12-23 08:04:00,
2013-12-23 09:09:00,35.6,31.5,30.29,North,0,2.3,2.3,85,0.00,OVC,BKN,0.00,WeatherDisplay:10.37,2013-12-23 08:09:00,
2013-12-23 09:14:00,35.8,31.7,30.29,NE,45,1.2,0.0,85,0.00,OVC,BKN,0.00,WeatherDisplay:10.37,2013-12-23 08:14:00,
2013-12-23 09:19:00,36.0,31.9,30.30,North,0,3.5,3.5,85,0.00,OVC,BKN,0.00,WeatherDisplay:10.37,2013-12-23 08:19:00,
2013-12-23 09:24:00,36.0,31.9,30.30,North,0,3.5,3.5,85,0.00,OVC,BKN,0.00,WeatherDisplay:10.37,2013-12-23 08:24:00,
2013-12-23 09:29:00,36.0,31.9,30.29,NW,315,2.3,2.3,85,0.00,OVC,BKN,0.00,WeatherDisplay:10.37,2013-12-23 08:29:00,
2013-12-23 09:34:00,36.1,32.1,30.30,NW,315,3.5,3.5,85,0.00,OVC,BKN,0.00,WeatherDisplay:10.37,2013-12-23 08:34:00,
2013-12-23 09:39:00,36.1,32.1,30.30,NW,315,3.5,3.5,85,0.00,OVC,BKN,0.00,WeatherDisplay:10.37,2013-12-23 08:39:00,
2013-12-23 09:44:00,36.3,32.2,30.30,North,0,1.6,1.6,85,0.00,OVC,BKN,0.00,WeatherDisplay:10.37,2013-12-23 08:44:00,
2013-12-23 09:49:00,36.3,32.2,30.29,North,0,3.5,3.5,85,0.00,OVC,BKN,0.00,WeatherDisplay:10.37,2013-12-23 08:49:00,
2013-12-23 09:54:00,36.5,32.4,30.29,NE,45,2.3,2.3,85,0.00,OVC,BKN,0.00,WeatherDisplay:10.37,2013-12-23 08:54:00,
2013-12-23 09:59:00,36.5,32.4,30.29,North,0,2.3,2.3,85,0.00,OVC,BKN,0.00,WeatherDisplay:10.37,2013-12-23 08:59:00,
2013-12-23 10:04:00,36.5,32.4,30.29,North,0,1.6,1.6,85,0.00,OVC,BKN,0.00,WeatherDisplay:10.37,2013-12-23 09:04:00,
2013-12-23 10:09:00,36.9,32.8,30.29,SE,135,3.5,3.5,85,0.00,OVC,BKN,0.00,WeatherDisplay:10.37,2013-12-23 09:09:00,
2013-12-23 10:14:00,36.9,32.5,30.29,East,90,3.5,3.5,84,0.00,OVC,BKN,0.00,WeatherDisplay:10.37,2013-12-23 09:14:00,
2013-12-23 10:19:00,37.0,32.7,30.29,East,90,3.5,3.5,84,0.00,OVC,BKN,0.00,WeatherDisplay:10.37,2013-12-23 09:19:00,
2013-12-23 10:24:00,37.0,32.7,30.29,ESE,112,3.5,3.5,84,0.00,OVC,BKN,0.00,WeatherDisplay:10.37,2013-12-23 09:24:00,
2013-12-23 10:29:00,37.0,32.4,30.28,ESE,112,3.1,3.1,83,0.00,OVC,BKN,0.00,WeatherDisplay:10.37,2013-12-23 09:29:00,
2013-12-23 10:34:00,37.2,32.5,30.29,East,90,3.5,3.5,83,0.00,OVC,BKN,0.00,WeatherDisplay:10.37,2013-12-23 09:34:00,
2013-12-23 10:39:00,37.2,32.5,30.28,East,90,3.5,3.5,83,0.00,OVC,BKN,0.00,WeatherDisplay:10.37,2013-12-23 09:39:00,
2013-12-23 10:44:00,37.2,32.5,30.29,North,0,3.5,3.5,83,0.00,OVC,BKN,0.00,WeatherDisplay:10.37,2013-12-23 09:44:00,
2013-12-23 10:49:00,37.2,32.5,30.29,SW,225,1.2,0.0,83,0.00,OVC,BKN,0.00,WeatherDisplay:10.37,2013-12-23 09:49:00,
2013-12-23 10:54:00,37.2,32.5,30.29,NW,315,3.5,3.5,83,0.00,OVC,BKN,0.00,WeatherDisplay:10.37,2013-12-23 09:54:00,
2013-12-23 10:59:00,37.4,33.9,30.29,SW,225,2.3,2.3,87,0.00,OVC,BKN,0.00,WeatherDisplay:10.37,2013-12-23 09:59:00,
2013-12-23 11:04:00,37.4,33.9,30.30,NW,315,3.5,3.5,87,0.00,OVC,BKN,0.00,WeatherDisplay:10.37,2013-12-23 10:04:00,
2013-12-23 11:09:00,37.4,33.9,30.30,North,0,3.5,3.5,87,0.00,OVC,BKN,0.00,WeatherDisplay:10.37,2013-12-23 10:09:00,
2013-12-23 11:14:00,37.4,33.9,30.28,North,0,2.3,2.3,87,0.00,OVC,BKN,0.00,WeatherDisplay:10.37,2013-12-23 10:14:00,
2013-12-23 11:19:00,37.4,33.9,30.29,North,0,3.5,3.5,87,0.00,OVC,BKN,0.00,WeatherDisplay:10.37,2013-12-23 10:19:00,
2013-12-23 11:24:00,37.4,33.9,30.28,West,270,2.3,2.3,87,0.00,OVC,BKN,0.00,WeatherDisplay:10.37,2013-12-23 10:24:00,
2013-12-23 11:29:00,37.4,33.9,30.29,NE,45,3.5,3.5,87,0.00,OVC,BKN,0.00,WeatherDisplay:10.37,2013-12-23 10:29:00,
2013-12-23 11:34:00,37.4,33.9,30.28,East,90,2.3,2.3,87,0.00,OVC,BKN,0.00,WeatherDisplay:10.37,2013-12-23 10:34:00,
2013-12-23 11:39:00,37.6,34.1,30.28,NE,45,1.6,0.0,87,0.00,OVC,BKN,0.00,WeatherDisplay:10.37,2013-12-23 10:39:00,
2013-12-23 11:44:00,37.6,34.1,30.28,NE,45,2.3,2.3,87,0.00,OVC,BKN,0.00,WeatherDisplay:10.37,2013-12-23 10:44:00,
2013-12-23 11:49:00,37.8,34.2,30.27,NW,315,2.3,2.3,87,0.00,OVC,BKN,0.00,WeatherDisplay:10.37,2013-12-23 10:49:00,
2013-12-23 11:54:00,37.9,34.4,30.28,NNW,338,3.5,3.5,87,0.00,OVC,BKN,0.00,WeatherDisplay:10.37,2013-12-23 10:54:00,
2013-12-23 11:59:00,37.9,34.4,30.27,South,180,2.3,2.3,87,0.00,OVC,BKN,0.00,WeatherDisplay:10.37,2013-12-23 10:59:00,
2013-12-23 12:04:00,37.9,34.4,30.27,South,180,1.6,1.6,87,0.00,OVC,BKN,0.00,WeatherDisplay:10.37,2013-12-23 11:04:00,
2013-12-23 12:09:00,38.3,34.8,30.27,NW,315,3.5,3.5,87,0.00,OVC,BKN,0.00,WeatherDisplay:10.37,2013-12-23 11:09:00,
2013-12-23 12:14:00,38.3,34.8,30.26,SW,225,1.2,0.0,87,0.00,OVC,BKN,0.00,WeatherDisplay:10.37,2013-12-23 11:14:00,
2013-12-23 12:19:00,38.3,34.8,30.26,North,0,1.2,1.2,87,0.00,OVC,BKN,0.00,WeatherDisplay:10.37,2013-12-23 11:19:00,
2013-12-23 12:24:00,38.5,34.9,30.26,SE,135,2.3,2.3,87,0.00,OVC,BKN,0.00,WeatherDisplay:10.37,2013-12-23 11:24:00,
2013-12-23 12:29:00,38.7,35.1,30.26,South,180,3.5,3.5,87,0.00,OVC,BKN,0.00,WeatherDisplay:10.37,2013-12-23 11:29:00,
2013-12-23 12:34:00,38.7,35.1,30.26,East,90,2.3,2.3,87,0.00,OVC,BKN,0.00,WeatherDisplay:10.37,2013-12-23 11:34:00,
2013-12-23 12:39:00,38.8,35.3,30.26,SE,135,2.3,2.3,87,0.00,OVC,BKN,0.00,WeatherDisplay:10.37,2013-12-23 11:39:00,
2013-12-23 12:44:00,39.0,35.5,30.26,NE,45,3.5,3.5,87,0.00,OVC,BKN,0.00,WeatherDisplay:10.37,2013-12-23 11:44:00,
2013-12-23 12:49:00,39.2,35.4,30.26,SE,135,2.3,2.3,86,0.00,OVC,BKN,0.00,WeatherDisplay:10.37,2013-12-23 11:49:00,
2013-12-23 12:54:00,39.2,35.4,30.27,NE,45,2.3,2.3,86,0.00,OVC,BKN,0.00,WeatherDisplay:10.37,2013-12-23 11:54:00,
2013-12-23 12:59:00,39.0,35.5,30.27,NE,45,1.6,1.6,87,0.00,OVC,BKN,0.00,WeatherDisplay:10.37,2013-12-23 11:59:00,
2013-12-23 13:04:00,39.2,35.4,30.27,NW,315,1.2,0.0,86,0.00,OVC,BKN,0.00,WeatherDisplay:10.37,2013-12-23 12:04:00,
2013-12-23 13:09:00,39.2,35.4,30.27,West,270,2.3,2.3,86,0.00,OVC,BKN,0.00,WeatherDisplay:10.37,2013-12-23 12:09:00,
2013-12-23 13:14:00,39.2,35.4,30.27,NW,315,3.5,3.5,86,0.00,OVC,BKN,0.00,WeatherDisplay:10.37,2013-12-23 12:14:00,
2013-12-23 13:19:00,39.0,35.5,30.27,NNW,338,3.1,3.1,87,0.00,OVC,BKN,0.00,WeatherDisplay:10.37,2013-12-23 12:19:00,
2013-12-23 13:24:00,39.0,35.5,30.28,North,0,3.5,3.5,87,0.00,OVC,BKN,0.00,WeatherDisplay:10.37,2013-12-23 12:24:00,
2013-12-23 13:29:00,39.2,35.4,30.27,North,0,3.8,3.8,86,0.00,OVC,BKN,0.00,WeatherDisplay:10.37,2013-12-23 12:29:00,
2013-12-23 13:34:00,39.2,35.4,30.27,North,0,3.8,3.8,86,0.00,OVC,BKN,0.00,WeatherDisplay:10.37,2013-12-23 12:34:00,
2013-12-23 13:39:00,39.0,35.5,30.27,WNW,292,4.6,4.6,87,0.00,OVC,BKN,0.00,WeatherDisplay:10.37,2013-12-23 12:39:00,
2013-12-23 13:44:00,39.0,35.5,30.27,SW,225,3.5,3.5,87,0.00,OVC,BKN,0.00,WeatherDisplay:10.37,2013-12-23 12:44:00,
2013-12-23 13:49:00,39.0,35.5,30.27,North,0,3.5,3.5,87,0.00,OVC,BKN,0.00,WeatherDisplay:10.37,2013-12-23 12:49:00,
2013-12-23 13:54:00,39.0,35.5,30.27,North,0,2.3,0.0,87,0.00,OVC,BKN,0.00,WeatherDisplay:10.37,2013-12-23 12:54:00,
2013-12-23 13:59:00,39.2,35.4,30.27,North,0,3.5,3.5,86,0.00,OVC,BKN,0.00,WeatherDisplay:10.37,2013-12-23 12:59:00,
2013-12-23 14:04:00,39.2,35.4,30.27,NNE,22,3.5,0.0,86,0.00,OVC,BKN,0.00,WeatherDisplay:10.37,2013-12-23 13:04:00,
2013-12-23 14:09:00,39.0,35.5,30.27,NNE,22,1.6,1.6,87,0.00,OVC,BKN,0.00,WeatherDisplay:10.37,2013-12-23 13:09:00,
2013-12-23 14:14:00,39.2,35.4,30.26,North,0,2.3,0.0,86,0.00,OVC,BKN,0.00,WeatherDisplay:10.37,2013-12-23 13:14:00,
2013-12-23 14:19:00,39.0,35.5,30.26,NE,45,2.3,2.3,87,0.00,OVC,BKN,0.00,WeatherDisplay:10.37,2013-12-23 13:19:00,
2013-12-23 14:24:00,39.0,35.5,30.26,NE,45,1.2,0.0,87,0.00,OVC,BKN,0.00,WeatherDisplay:10.37,2013-12-23 13:24:00,
2013-12-23 14:29:00,39.2,35.4,30.26,North,0,3.5,3.5,86,0.00,OVC,BKN,0.00,WeatherDisplay:10.37,2013-12-23 13:29:00,
2013-12-23 14:34:00,39.2,35.4,30.26,North,0,2.3,2.3,86,0.00,OVC,BKN,0.00,WeatherDisplay:10.37,2013-12-23 13:34:00,
2013-12-23 14:39:00,39.2,35.4,30.26,North,0,2.3,2.3,86,0.00,OVC,BKN,0.00,WeatherDisplay:10.37,2013-12-23 13:39:00,
2013-12-23 14:44:00,39.2,35.4,30.26,North,0,3.5,3.5,86,0.00,OVC,BKN,0.00,WeatherDisplay:10.37,2013-12-23 13:44:00,
2013-12-23 14:49:00,39.2,35.7,30.26,North,0,1.6,1.6,87,0.00,OVC,BKN,0.00,WeatherDisplay:10.37,2013-12-23 13:49:00,
2013-12-23 14:54:00,39.2,35.7,30.26,ENE,68,3.5,3.5,87,0.00,OVC,BKN,0.00,WeatherDisplay:10.37,2013-12-23 13:54:00,
2013-12-23 14:59:00,39.2,35.7,30.26,North,0,2.3,2.3,87,0.00,OVC,BKN,0.00,WeatherDisplay:10.37,2013-12-23 13:59:00,
2013-12-23 15:04:00,39.0,35.8,30.26,NW,315,1.6,1.6,88,0.00,OVC,BKN,0.00,WeatherDisplay:10.37,2013-12-23 14:04:00,
2013-12-23 15:09:00,39.0,35.8,30.26,West,270,1.6,1.6,88,0.00,OVC,BKN,0.00,WeatherDisplay:10.37,2013-12-23 14:09:00,
2013-12-23 15:14:00,39.0,35.8,30.26,West,270,1.6,1.6,88,0.00,OVC,BKN,0.00,WeatherDisplay:10.37,2013-12-23 14:14:00,
2013-12-23 15:19:00,39.0,35.8,30.26,WNW,292,3.5,3.5,88,0.00,OVC,BKN,0.00,WeatherDisplay:10.37,2013-12-23 14:19:00,
2013-12-23 15:24:00,39.0,35.8,30.26,NW,315,2.3,2.3,88,0.00,OVC,BKN,0.00,WeatherDisplay:10.37,2013-12-23 14:24:00,
2013-12-23 15:29:00,39.0,35.8,30.27,NW,315,3.5,0.0,88,0.00,OVC,BKN,0.00,WeatherDisplay:10.37,2013-12-23 14:29:00,
2013-12-23 15:34:00,38.8,35.6,30.27,NW,315,1.6,1.6,88,0.00,OVC,BKN,0.00,WeatherDisplay:10.37,2013-12-23 14:34:00,
2013-12-23 15:39:00,38.8,35.6,30.27,NW,315,3.1,3.1,88,0.00,OVC,BKN,0.00,WeatherDisplay:10.37,2013-12-23 14:39:00,
2013-12-23 15:44:00,38.7,35.4,30.26,North,0,2.3,2.3,88,0.00,OVC,BKN,0.00,WeatherDisplay:10.37,2013-12-23 14:44:00,
2013-12-23 15:49:00,38.7,35.4,30.27,NW,315,1.6,0.0,88,0.00,OVC,BKN,0.00,WeatherDisplay:10.37,2013-12-23 14:49:00,
2013-12-23 15:54:00,38.7,35.4,30.27,North,0,1.2,0.0,88,0.00,OVC,BKN,0.00,WeatherDisplay:10.37,2013-12-23 14:54:00,
2013-12-23 15:59:00,38.7,35.4,30.27,North,0,1.2,0.0,88,0.00,OVC,BKN,0.00,WeatherDisplay:10.37,2013-12-23 14:59:00,
2013-12-23 16:04:00,38.7,35.4,30.27,North,0,1.2,0.0,88,0.00,OVC,BKN,0.00,WeatherDisplay:10.37,2013-12-23 15:04:00,
2013-12-23 16:09:00,38.5,35.2,30.27,NW,315,1.6,1.6,88,0.00,OVC,BKN,0.00,WeatherDisplay:10.37,2013-12-23 15:09:00,
2013-12-23 16:14:00,38.5,35.2,30.27,North,0,1.2,0.0,88,0.00,OVC,BKN,0.00,WeatherDisplay:10.37,2013-12-23 15:14:00,
2013-12-23 16:19:00,38.5,35.2,30.26,North,0,3.1,3.1,88,0.00,OVC,BKN,0.00,WeatherDisplay:10.37,2013-12-23 15:19:00,
2013-12-23 16:24:00,38.3,35.1,30.27,NW,315,5.8,5.8,88,0.00,OVC,BKN,0.00,WeatherDisplay:10.37,2013-12-23 15:24:00,
2013-12-23 16:29:00,38.3,35.1,30.26,NW,315,3.5,3.5,88,0.00,OVC,BKN,0.00,WeatherDisplay:10.37,2013-12-23 15:29:00,
2013-12-23 16:34:00,38.3,35.1,30.27,NE,45,2.3,2.3,88,0.00,OVC,BKN,0.00,WeatherDisplay:10.37,2013-12-23 15:34:00,
2013-12-23 16:39:00,38.1,34.9,30.26,North,0,3.5,3.5,88,0.00,OVC,BKN,0.00,WeatherDisplay:10.37,2013-12-23 15:39:00,
2013-12-23 16:44:00,38.1,35.2,30.27,North,0,3.5,3.5,89,0.00,OVC,BKN,0.00,WeatherDisplay:10.37,2013-12-23 15:44:00,
2013-12-23 16:49:00,38.1,35.2,30.26,NE,45,3.8,3.8,89,0.00,OVC,BKN,0.00,WeatherDisplay:10.37,2013-12-23 15:49:00,
2013-12-23 16:54:00,37.9,35.0,30.26,North,0,3.5,3.5,89,0.00,OVC,BKN,0.00,WeatherDisplay:10.37,2013-12-23 15:54:00,
2013-12-23 16:59:00,37.9,35.0,30.27,NE,45,4.6,4.6,89,0.00,OVC,BKN,0.00,WeatherDisplay:10.37,2013-12-23 15:59:00,
2013-12-23 17:04:00,37.9,35.0,30.27,NW,315,3.5,3.5,89,0.00,OVC,BKN,0.00,WeatherDisplay:10.37,2013-12-23 16:04:00,
2013-12-23 17:09:00,37.9,35.0,30.27,NE,45,2.3,0.0,89,0.00,OVC,BKN,0.00,WeatherDisplay:10.37,2013-12-23 16:09:00,
2013-12-23 17:14:00,37.9,35.0,30.27,North,0,2.3,2.3,89,0.00,OVC,BKN,0.00,WeatherDisplay:10.37,2013-12-23 16:14:00,
2013-12-23 17:19:00,37.9,35.0,30.27,West,270,3.5,3.5,89,0.00,OVC,BKN,0.00,WeatherDisplay:10.37,2013-12-23 16:19:00,
2013-12-23 17:24:00,37.9,35.0,30.27,SE,135,3.5,3.5,89,0.00,OVC,BKN,0.00,WeatherDisplay:10.37,2013-12-23 16:24:00,
2013-12-23 17:29:00,37.8,34.8,30.26,SE,135,3.5,3.5,89,0.00,OVC,BKN,0.00,WeatherDisplay:10.37,2013-12-23 16:29:00,
2013-12-23 17:34:00,37.8,34.8,30.27,SW,225,2.2,2.2,89,0.00,OVC,BKN,0.00,WeatherDisplay:10.37,2013-12-23 16:34:00,
2013-12-23 17:39:00,37.8,34.8,30.27,SE,135,2.2,2.2,89,0.00,OVC,BKN,0.00,WeatherDisplay:10.37,2013-12-23 16:39:00,
2013-12-23 17:44:00,37.8,34.8,30.27,South,180,2.3,2.3,89,0.00,OVC,BKN,0.00,WeatherDisplay:10.37,2013-12-23 16:44:00,
2013-12-23 17:49:00,37.8,35.1,30.27,SE,135,2.3,2.3,90,0.00,OVC,BKN,0.00,WeatherDisplay:10.37,2013-12-23 16:49:00,
2013-12-23 17:54:00,37.8,35.1,30.27,South,180,2.3,2.3,90,0.00,OVC,BKN,0.00,WeatherDisplay:10.37,2013-12-23 16:54:00,
2013-12-23 17:59:00,37.8,35.1,30.27,SW,225,3.8,3.8,90,0.00,OVC,BKN,0.00,WeatherDisplay:10.37,2013-12-23 16:59:00,
2013-12-23 18:04:00,37.8,35.1,30.26,SW,225,3.8,3.8,90,0.00,OVC,BKN,0.00,WeatherDisplay:10.37,2013-12-23 17:04:00,
2013-12-23 18:09:00,37.8,35.1,30.27,North,0,3.5,3.5,90,0.00,OVC,BKN,0.00,WeatherDisplay:10.37,2013-12-23 17:09:00,
2013-12-23 18:14:00,37.8,35.1,30.27,East,90,3.5,3.5,90,0.00,OVC,BKN,0.00,WeatherDisplay:10.37,2013-12-23 17:14:00,
2013-12-23 18:19:00,37.6,34.9,30.27,East,90,1.2,0.0,90,0.00,OVC,BKN,0.00,WeatherDisplay:10.37,2013-12-23 17:19:00,
2013-12-23 18:24:00,37.6,34.9,30.26,SW,225,3.5,3.5,90,0.00,OVC,BKN,0.00,WeatherDisplay:10.37,2013-12-23 17:24:00,
2013-12-23 18:29:00,37.6,34.9,30.27,SW,225,3.5,3.5,90,0.00,OVC,BKN,0.00,WeatherDisplay:10.37,2013-12-23 17:29:00,
2013-12-23 18:34:00,37.6,34.9,30.27,SW,225,5.8,5.8,90,0.00,OVC,BKN,0.00,WeatherDisplay:10.37,2013-12-23 17:34:00,
2013-12-23 18:39:00,37.4,34.7,30.26,South,180,3.5,3.5,90,0.00,OVC,BKN,0.00,WeatherDisplay:10.37,2013-12-23 17:39:00,
2013-12-23 18:44:00,37.4,34.7,30.26,South,180,3.1,3.1,90,0.00,OVC,BKN,0.00,WeatherDisplay:10.37,2013-12-23 17:44:00,
2013-12-23 18:49:00,37.4,34.7,30.26,SE,135,4.6,4.6,90,0.00,OVC,BKN,0.00,WeatherDisplay:10.37,2013-12-23 17:49:00,
2013-12-23 18:54:00,37.4,34.7,30.27,SW,225,3.8,3.8,90,0.00,OVC,BKN,0.00,WeatherDisplay:10.37,2013-12-23 17:54:00,
2013-12-23 18:59:00,37.4,34.7,30.26,South,180,5.8,5.8,90,0.00,OVC,BKN,0.00,WeatherDisplay:10.37,2013-12-23 17:59:00,
2013-12-23 19:04:00,37.4,34.7,30.27,West,270,1.2,0.0,90,0.00,OVC,BKN,0.00,WeatherDisplay:10.37,2013-12-23 18:04:00,
2013-12-23 19:09:00,37.4,35.0,30.27,South,180,1.2,0.0,91,0.00,OVC,BKN,0.00,WeatherDisplay:10.37,2013-12-23 18:09:00,
2013-12-23 19:14:00,37.2,33.7,30.27,South,180,3.8,3.8,87,0.00,OVC,BKN,0.00,WeatherDisplay:10.37,2013-12-23 18:14:00,
2013-12-23 19:19:00,37.4,35.0,30.26,South,180,4.6,4.6,91,0.00,OVC,BKN,0.00,WeatherDisplay:10.37,2013-12-23 18:19:00,
2013-12-23 19:24:00,37.4,35.0,30.26,SW,225,3.1,3.1,91,0.00,OVC,BKN,0.00,WeatherDisplay:10.37,2013-12-23 18:24:00,
2013-12-23 19:29:00,37.4,35.0,30.27,South,180,3.5,0.0,91,0.00,OVC,BKN,0.00,WeatherDisplay:10.37,2013-12-23 18:29:00,
2013-12-23 19:34:00,37.2,33.7,30.27,SW,225,1.2,0.0,87,0.00,OVC,BKN,0.00,WeatherDisplay:10.37,2013-12-23 18:34:00,
2013-12-23 19:39:00,37.2,33.7,30.27,South,180,1.6,1.6,87,0.00,OVC,BKN,0.00,WeatherDisplay:10.37,2013-12-23 18:39:00,
2013-12-23 19:44:00,37.2,33.7,30.27,SSE,158,1.6,1.6,87,0.00,OVC,BKN,0.00,WeatherDisplay:10.37,2013-12-23 18:44:00,
2013-12-23 19:49:00,37.0,33.5,30.26,SE,135,2.3,2.3,87,0.00,OVC,BKN,0.00,WeatherDisplay:10.37,2013-12-23 18:49:00,
2013-12-23 19:54:00,37.0,33.5,30.26,SE,135,3.5,3.5,87,0.00,OVC,BKN,0.00,WeatherDisplay:10.37,2013-12-23 18:54:00,
2013-12-23 19:59:00,37.0,33.5,30.26,SE,135,3.8,3.8,87,0.00,OVC,BKN,0.00,WeatherDisplay:10.37,2013-12-23 18:59:00,
2013-12-23 20:04:00,37.0,33.5,30.27,SE,135,3.8,3.8,87,0.00,OVC,BKN,0.00,WeatherDisplay:10.37,2013-12-23 19:04:00,
2013-12-23 20:09:00,36.9,33.4,30.26,SE,135,4.6,4.6,87,0.00,OVC,BKN,0.00,WeatherDisplay:10.37,2013-12-23 19:09:00,
2013-12-23 20:14:00,36.9,33.4,30.26,South,180,5.8,5.8,87,0.00,OVC,BKN,0.00,WeatherDisplay:10.37,2013-12-23 19:14:00,
2013-12-23 20:19:00,36.7,33.2,30.26,South,180,3.5,3.5,87,0.00,CLR,BKN,0.00,WeatherDisplay:10.37,2013-12-23 19:19:00,
2013-12-23 20:24:00,36.7,33.5,30.26,SE,135,3.5,0.0,88,0.00,CLR,BKN,0.00,WeatherDisplay:10.37,2013-12-23 19:24:00,
2013-12-23 20:29:00,36.5,33.3,30.26,SE,135,3.8,3.8,88,0.00,CLR,BKN,0.00,WeatherDisplay:10.37,2013-12-23 19:29:00,
2013-12-23 20:34:00,36.5,33.3,30.26,East,90,4.6,4.6,88,0.00,CLR,BKN,0.00,WeatherDisplay:10.37,2013-12-23 19:34:00,
2013-12-23 20:39:00,36.3,33.1,30.26,South,180,3.5,3.5,88,0.00,CLR,BKN,0.00,WeatherDisplay:10.37,2013-12-23 19:39:00,
2013-12-23 20:44:00,36.3,33.1,30.26,South,180,2.3,2.3,88,0.00,CLR,BKN,0.00,WeatherDisplay:10.37,2013-12-23 19:44:00,
2013-12-23 20:49:00,36.3,33.1,30.26,SE,135,3.5,3.5,88,0.00,CLR,BKN,0.00,WeatherDisplay:10.37,2013-12-23 19:49:00,
2013-12-23 20:54:00,36.3,33.1,30.26,ESE,112,3.5,3.5,88,0.00,CLR,BKN,0.00,WeatherDisplay:10.37,2013-12-23 19:54:00,
2013-12-23 20:59:00,36.1,32.9,30.26,NE,45,3.5,3.5,88,0.00,CLR,BKN,0.00,WeatherDisplay:10.37,2013-12-23 19:59:00,
2013-12-23 21:04:00,36.0,32.8,30.26,SE,135,3.8,3.8,88,0.00,CLR,BKN,0.00,WeatherDisplay:10.37,2013-12-23 20:04:00,
2013-12-23 21:09:00,36.0,32.8,30.26,East,90,4.6,4.6,88,0.00,CLR,BKN,0.00,WeatherDisplay:10.37,2013-12-23 20:09:00,
2013-12-23 21:14:00,35.8,32.6,30.26,NE,45,5.8,5.8,88,0.00,CLR,BKN,0.00,WeatherDisplay:10.37,2013-12-23 20:14:00,
2013-12-23 21:19:00,35.6,32.4,30.26,ESE,112,3.1,3.1,88,0.00,CLR,BKN,0.00,WeatherDisplay:10.37,2013-12-23 20:19:00,
2013-12-23 21:24:00,35.6,32.4,30.26,SW,225,3.5,0.0,88,0.00,CLR,BKN,0.00,WeatherDisplay:10.37,2013-12-23 20:24:00,
2013-12-23 21:29:00,35.6,32.4,30.26,South,180,2.3,0.0,88,0.00,CLR,BKN,0.00,WeatherDisplay:10.37,2013-12-23 20:29:00,
2013-12-23 21:34:00,35.6,32.4,30.25,SW,225,1.6,0.0,88,0.00,CLR,BKN,0.00,WeatherDisplay:10.37,2013-12-23 20:34:00,
2013-12-23 21:39:00,35.6,32.4,30.25,South,180,1.2,0.0,88,0.00,CLR,BKN,0.00,WeatherDisplay:10.37,2013-12-23 20:39:00,
2013-12-23 21:44:00,35.4,32.5,30.25,South,180,0.0,0.0,89,0.00,CLR,BKN,0.00,WeatherDisplay:10.37,2013-12-23 20:44:00,
2013-12-23 21:49:00,35.4,32.5,30.26,East,90,1.6,1.6,89,0.00,CLR,BKN,0.00,WeatherDisplay:10.37,2013-12-23 20:49:00,
2013-12-23 21:54:00,35.6,32.4,30.26,East,90,2.3,2.3,88,0.00,CLR,BKN,0.00,WeatherDisplay:10.37,2013-12-23 20:54:00,
2013-12-23 21:59:00,35.6,32.4,30.26,NE,45,3.5,3.5,88,0.00,CLR,BKN,0.00,WeatherDisplay:10.37,2013-12-23 20:59:00,
2013-12-23 22:04:00,35.6,32.4,30.25,NE,45,1.6,1.6,88,0.00,CLR,BKN,0.00,WeatherDisplay:10.37,2013-12-23 21:04:00,
2013-12-23 22:09:00,35.6,32.4,30.26,SE,135,3.8,3.8,88,0.00,CLR,BKN,0.00,WeatherDisplay:10.37,2013-12-23 21:09:00,
2013-12-23 22:14:00,35.6,32.4,30.26,SE,135,6.0,6.0,88,0.00,CLR,BKN,0.00,WeatherDisplay:10.37,2013-12-23 21:14:00,
2013-12-23 22:19:00,35.4,32.5,30.26,ESE,112,5.8,5.8,89,0.00,CLR,BKN,0.00,WeatherDisplay:10.37,2013-12-23 21:19:00,
2013-12-23 22:24:00,35.4,32.5,30.26,SE,135,3.8,3.8,89,0.00,CLR,BKN,0.00,WeatherDisplay:10.37,2013-12-23 21:24:00,
2013-12-23 22:29:00,35.4,32.5,30.26,SE,135,6.9,6.9,89,0.00,CLR,BKN,0.00,WeatherDisplay:10.37,2013-12-23 21:29:00,
2013-12-23 22:34:00,35.2,32.3,30.26,NE,45,3.5,3.5,89,0.00,CLR,BKN,0.00,WeatherDisplay:10.37,2013-12-23 21:34:00,
2013-12-23 22:39:00,35.2,32.3,30.27,SE,135,3.1,3.1,89,0.00,CLR,BKN,0.00,WeatherDisplay:10.37,2013-12-23 21:39:00,
2013-12-23 22:44:00,35.2,32.3,30.26,East,90,2.3,2.3,89,0.00,CLR,BKN,0.00,WeatherDisplay:10.37,2013-12-23 21:44:00,
2013-12-23 22:49:00,35.2,32.3,30.26,SE,135,4.5,4.5,89,0.00,CLR,BKN,0.00,WeatherDisplay:10.37,2013-12-23 21:49:00,
2013-12-23 22:54:00,35.2,32.3,30.26,East,90,5.8,5.8,89,0.00,CLR,BKN,0.00,WeatherDisplay:10.37,2013-12-23 21:54:00,
2013-12-23 22:59:00,35.2,32.3,30.26,East,90,3.5,3.5,89,0.00,CLR,BKN,0.00,WeatherDisplay:10.37,2013-12-23 21:59:00,
2013-12-23 23:04:00,35.1,32.1,30.26,South,180,3.5,3.5,89,0.00,CLR,BKN,0.00,WeatherDisplay:10.37,2013-12-23 22:04:00,
2013-12-23 23:09:00,35.1,32.1,30.26,SE,135,4.6,4.6,89,0.00,CLR,BKN,0.00,WeatherDisplay:10.37,2013-12-23 22:09:00,
2013-12-23 23:14:00,35.1,32.1,30.26,South,180,3.5,3.5,89,0.00,CLR,BKN,0.00,WeatherDisplay:10.37,2013-12-23 22:14:00,
2013-12-23 23:19:00,35.1,32.1,30.26,SW,225,2.3,2.3,89,0.00,OVC,BKN,0.00,WeatherDisplay:10.37,2013-12-23 22:19:00,
2013-12-23 23:24:00,35.1,32.1,30.26,SE,135,3.5,3.5,89,0.00,OVC,BKN,0.00,WeatherDisplay:10.37,2013-12-23 22:24:00,
2013-12-23 23:29:00,35.1,32.1,30.26,SE,135,2.3,2.3,89,0.00,OVC,BKN,0.00,WeatherDisplay:10.37,2013-12-23 22:29:00,
2013-12-23 23:34:00,35.1,32.1,30.26,SE,135,3.5,3.5,89,0.00,OVC,BKN,0.00,WeatherDisplay:10.37,2013-12-23 22:34:00,
2013-12-23 23:39:00,35.1,32.4,30.26,SE,135,3.5,3.5,90,0.00,OVC,BKN,0.00,WeatherDisplay:10.37,2013-12-23 22:39:00,
2013-12-23 23:44:00,35.1,32.4,30.26,SE,135,3.5,3.5,90,0.00,OVC,BKN,0.00,WeatherDisplay:10.37,2013-12-23 22:44:00,
2013-12-23 23:49:00,35.1,32.4,30.26,South,180,1.2,0.0,90,0.00,OVC,BKN,0.00,WeatherDisplay:10.37,2013-12-23 22:49:00,
2013-12-23 23:54:00,35.1,32.4,30.26,East,90,1.2,0.0,90,0.00,OVC,BKN,0.00,WeatherDisplay:10.37,2013-12-23 22:54:00,
2013-12-23 23:59:00,35.1,32.4,30.26,East,90,3.5,3.5,90,0.00,OVC,BKN,0.00,WeatherDisplay:10.37,2013-12-23 22:59:00,